sensor_id;sensor_type;location;lat;lon;timestamp;pressure;altitude;pressure_sealevel;temperature;humidity
33496;BME280;19836;55.812;37.560;2022-12-18T00:01:21;99176.31;;;-1.16;76.49
33496;BME280;19836;55.812;37.560;2022-12-18T00:03:47;99168.38;;;-1.22;76.42
33496;BME280;19836;55.812;37.560;2022-12-18T00:06:14;99153.47;;;-1.26;76.03
33496;BME280;19836;55.812;37.560;2022-12-18T00:08:44;99150.84;;;-1.29;76.48
33496;BME280;19836;55.812;37.560;2022-12-18T00:11:15;99135.94;;;-1.27;76.16
33496;BME280;19836;55.812;37.560;2022-12-18T00:13:42;99135.03;;;-1.32;75.93
33496;BME280;19836;55.812;37.560;2022-12-18T00:16:20;99134.19;;;-1.30;76.13
33496;BME280;19836;55.812;37.560;2022-12-18T00:18:47;99130.69;;;-1.27;76.19
33496;BME280;19836;55.812;37.560;2022-12-18T00:21:14;99130.72;;;-1.24;76.23
33496;BME280;19836;55.812;37.560;2022-12-18T00:23:41;99133.31;;;-1.30;76.23
33496;BME280;19836;55.812;37.560;2022-12-18T00:26:14;99121.06;;;-1.28;76.12
33496;BME280;19836;55.812;37.560;2022-12-18T00:28:44;99122.81;;;-1.26;76.13
33496;BME280;19836;55.812;37.560;2022-12-18T00:31:14;99115.81;;;-1.28;76.15
33496;BME280;19836;55.812;37.560;2022-12-18T00:33:40;99106.13;;;-1.34;75.92
33496;BME280;19836;55.812;37.560;2022-12-18T00:36:14;99101.72;;;-1.36;76.05
33496;BME280;19836;55.812;37.560;2022-12-18T00:38:41;99099.09;;;-1.41;76.06
33496;BME280;19836;55.812;37.560;2022-12-18T00:41:08;99092.91;;;-1.46;76.23
33496;BME280;19836;55.812;37.560;2022-12-18T00:43:35;99099.06;;;-1.44;76.02
33496;BME280;19836;55.812;37.560;2022-12-18T00:46:01;99094.69;;;-1.39;76.08
33496;BME280;19836;55.812;37.560;2022-12-18T00:48:27;99097.38;;;-1.36;76.14
33496;BME280;19836;55.812;37.560;2022-12-18T00:50:53;99091.22;;;-1.39;76.09
33496;BME280;19836;55.812;37.560;2022-12-18T00:53:19;99087.69;;;-1.41;76.12
33496;BME280;19836;55.812;37.560;2022-12-18T00:55:46;99092.03;;;-1.45;76.06
33496;BME280;19836;55.812;37.560;2022-12-18T00:58:14;99087.66;;;-1.47;75.98
33496;BME280;19836;55.812;37.560;2022-12-18T01:00:40;99078.91;;;-1.46;75.94
33496;BME280;19836;55.812;37.560;2022-12-18T01:03:13;99077.16;;;-1.50;75.72
33496;BME280;19836;55.812;37.560;2022-12-18T01:05:40;99069.25;;;-1.49;75.87
33496;BME280;19836;55.812;37.560;2022-12-18T01:08:06;99069.28;;;-1.46;75.87
33496;BME280;19836;55.812;37.560;2022-12-18T01:10:32;99058.81;;;-1.42;76.01
33496;BME280;19836;55.812;37.560;2022-12-18T01:12:58;99054.34;;;-1.54;75.54
33496;BME280;19836;55.812;37.560;2022-12-18T01:15:24;99052.53;;;-1.61;76.03
33496;BME280;19836;55.812;37.560;2022-12-18T01:17:52;99045.50;;;-1.68;75.70
33496;BME280;19836;55.812;37.560;2022-12-18T01:20:18;99041.97;;;-1.73;75.74
33496;BME280;19836;55.812;37.560;2022-12-18T01:22:44;99041.09;;;-1.72;75.76
33496;BME280;19836;55.812;37.560;2022-12-18T01:25:10;99031.50;;;-1.70;75.79
33496;BME280;19836;55.812;37.560;2022-12-18T01:27:36;99035.84;;;-1.72;75.70
33496;BME280;19836;55.812;37.560;2022-12-18T01:30:04;99035.81;;;-1.78;75.81
33496;BME280;19836;55.812;37.560;2022-12-18T01:32:30;99037.56;;;-1.76;75.72
33496;BME280;19836;55.812;37.560;2022-12-18T01:34:57;99036.69;;;-1.76;75.84
33496;BME280;19836;55.812;37.560;2022-12-18T01:37:23;99033.19;;;-1.78;75.80
33496;BME280;19836;55.812;37.560;2022-12-18T01:39:48;99041.91;;;-1.82;75.38
33496;BME280;19836;55.812;37.560;2022-12-18T01:42:15;99041.03;;;-1.81;75.60
33496;BME280;19836;55.812;37.560;2022-12-18T01:45:02;99034.91;;;-1.83;75.52
33496;BME280;19836;55.812;37.560;2022-12-18T01:47:40;99034.91;;;-1.83;75.82
33496;BME280;19836;55.812;37.560;2022-12-18T01:50:13;99038.41;;;-1.84;75.58
33496;BME280;19836;55.812;37.560;2022-12-18T01:52:49;99038.38;;;-1.86;75.40
33496;BME280;19836;55.812;37.560;2022-12-18T01:55:18;99038.34;;;-1.87;75.52
33496;BME280;19836;55.812;37.560;2022-12-18T01:57:46;99028.75;;;-1.87;75.43
33496;BME280;19836;55.812;37.560;2022-12-18T02:00:18;99032.22;;;-1.86;75.75
33496;BME280;19836;55.812;37.560;2022-12-18T02:02:46;99026.09;;;-1.88;75.48
33496;BME280;19836;55.812;37.560;2022-12-18T02:05:15;99026.09;;;-1.88;75.53
33496;BME280;19836;55.812;37.560;2022-12-18T02:08:22;99033.09;;;-1.87;75.42
33496;BME280;19836;55.812;37.560;2022-12-18T02:11:04;99040.09;;;-1.91;75.49
33496;BME280;19836;55.812;37.560;2022-12-18T02:23:24;99036.53;;;-1.97;75.42
33496;BME280;19836;55.812;37.560;2022-12-18T02:25:40;99047.91;;;-1.98;75.08
33496;BME280;19836;55.812;37.560;2022-12-18T02:28:15;99047.00;;;-2.03;75.29
33496;BME280;19836;55.812;37.560;2022-12-18T02:30:43;99041.72;;;-2.05;75.02
33496;BME280;19836;55.812;37.560;2022-12-18T02:33:11;99047.88;;;-2.00;75.10
33496;BME280;19836;55.812;37.560;2022-12-18T02:35:40;99043.53;;;-1.96;75.33
33496;BME280;19836;55.812;37.560;2022-12-18T02:38:07;99033.88;;;-2.02;75.15
33496;BME280;19836;55.812;37.560;2022-12-18T02:40:36;99033.00;;;-2.05;75.26
33496;BME280;19836;55.812;37.560;2022-12-18T02:43:12;99043.50;;;-2.05;75.08
33496;BME280;19836;55.812;37.560;2022-12-18T02:45:50;99044.34;;;-2.05;75.06
33496;BME280;19836;55.812;37.560;2022-12-18T02:48:22;99039.09;;;-2.05;75.20
33496;BME280;19836;55.812;37.560;2022-12-18T02:53:50;99050.50;;;-2.01;75.28
33496;BME280;19836;55.812;37.560;2022-12-18T02:56:22;99035.63;;;-2.05;75.23
33496;BME280;19836;55.812;37.560;2022-12-18T02:58:58;99041.69;;;-2.09;75.06
33496;BME280;19836;55.812;37.560;2022-12-18T03:01:42;99033.84;;;-2.08;75.13
33496;BME280;19836;55.812;37.560;2022-12-18T03:04:13;99033.00;;;-2.05;74.98
33496;BME280;19836;55.812;37.560;2022-12-18T03:06:44;99037.34;;;-2.06;74.77
33496;BME280;19836;55.812;37.560;2022-12-18T03:09:28;99043.50;;;-2.05;74.96
33496;BME280;19836;55.812;37.560;2022-12-18T03:12:02;99029.44;;;-2.10;74.89
33496;BME280;19836;55.812;37.560;2022-12-18T03:15:09;99016.34;;;-2.10;74.67
33496;BME280;19836;55.812;37.560;2022-12-18T03:17:38;99023.31;;;-2.09;74.97
33496;BME280;19836;55.812;37.560;2022-12-18T03:20:13;99024.19;;;-2.10;74.96
33496;BME280;19836;55.812;37.560;2022-12-18T03:22:42;99024.13;;;-2.19;74.61
33496;BME280;19836;55.812;37.560;2022-12-18T03:25:10;99033.69;;;-2.21;74.55
33496;BME280;19836;55.812;37.560;2022-12-18T03:27:41;99025.88;;;-2.18;74.57
33496;BME280;19836;55.812;37.560;2022-12-18T03:30:12;99026.75;;;-2.19;74.78
33496;BME280;19836;55.812;37.560;2022-12-18T03:35:32;99039.88;;;-2.19;74.65
33496;BME280;19836;55.812;37.560;2022-12-18T03:38:00;99038.13;;;-2.20;74.79
33496;BME280;19836;55.812;37.560;2022-12-18T03:40:43;99043.34;;;-2.19;74.79
33496;BME280;19836;55.812;37.560;2022-12-18T03:46:30;99037.19;;;-2.25;75.04
33496;BME280;19836;55.812;37.560;2022-12-18T03:49:02;99038.03;;;-2.29;74.96
33496;BME280;19836;55.812;37.560;2022-12-18T03:54:06;99037.16;;;-2.27;74.66
33496;BME280;19836;55.812;37.560;2022-12-18T03:56:43;99034.50;;;-2.31;74.51
33496;BME280;19836;55.812;37.560;2022-12-18T03:59:12;99031.84;;;-2.34;75.19
33496;BME280;19836;55.812;37.560;2022-12-18T04:01:42;99028.41;;;-2.29;75.04
33496;BME280;19836;55.812;37.560;2022-12-18T04:04:14;99030.13;;;-2.32;75.01
33496;BME280;19836;55.812;37.560;2022-12-18T04:06:43;99028.34;;;-2.35;74.75
33496;BME280;19836;55.812;37.560;2022-12-18T04:09:12;99028.31;;;-2.36;75.06
33496;BME280;19836;55.812;37.560;2022-12-18T04:11:43;99024.81;;;-2.38;74.52
33496;BME280;19836;55.812;37.560;2022-12-18T04:14:11;99031.75;;;-2.43;75.08
33496;BME280;19836;55.812;37.560;2022-12-18T04:16:37;99038.75;;;-2.44;74.85
33496;BME280;19836;55.812;37.560;2022-12-18T04:19:05;99038.78;;;-2.41;75.17
33496;BME280;19836;55.812;37.560;2022-12-18T04:21:37;99057.13;;;-2.42;75.30
33496;BME280;19836;55.812;37.560;2022-12-18T04:24:04;99060.63;;;-2.43;75.00
33496;BME280;19836;55.812;37.560;2022-12-18T04:26:31;99059.72;;;-2.47;75.22
33496;BME280;19836;55.812;37.560;2022-12-18T04:29:23;99072.81;;;-2.48;75.23
33496;BME280;19836;55.812;37.560;2022-12-18T04:31:49;99078.03;;;-2.48;74.75
33496;BME280;19836;55.812;37.560;2022-12-18T04:34:16;99082.41;;;-2.50;75.29
33496;BME280;19836;55.812;37.560;2022-12-18T04:36:48;99102.44;;;-2.54;74.82
33496;BME280;19836;55.812;37.560;2022-12-18T04:39:18;99112.91;;;-2.57;75.20
33496;BME280;19836;55.812;37.560;2022-12-18T04:41:44;99105.94;;;-2.55;74.78
33496;BME280;19836;55.812;37.560;2022-12-18T04:44:12;99105.97;;;-2.53;74.74
33496;BME280;19836;55.812;37.560;2022-12-18T04:46:37;99098.97;;;-2.51;75.02
33496;BME280;19836;55.812;37.560;2022-12-18T04:49:04;99105.09;;;-2.52;75.24
33496;BME280;19836;55.812;37.560;2022-12-18T04:51:30;99115.56;;;-2.52;74.76
33496;BME280;19836;55.812;37.560;2022-12-18T04:53:56;99120.81;;;-2.52;74.80
33496;BME280;19836;55.812;37.560;2022-12-18T04:56:22;99124.31;;;-2.53;74.79
33496;BME280;19836;55.812;37.560;2022-12-18T04:58:48;99122.53;;;-2.58;75.25
33496;BME280;19836;55.812;37.560;2022-12-18T05:01:16;99131.19;;;-2.63;75.29
33496;BME280;19836;55.812;37.560;2022-12-18T05:03:42;99121.59;;;-2.61;75.26
33496;BME280;19836;55.812;37.560;2022-12-18T05:06:08;99107.63;;;-2.60;75.33
33496;BME280;19836;55.812;37.560;2022-12-18T05:08:34;99111.19;;;-2.56;75.09
33496;BME280;19836;55.812;37.560;2022-12-18T05:11:06;99107.69;;;-2.55;74.92
33496;BME280;19836;55.812;37.560;2022-12-18T05:13:33;99112.03;;;-2.58;75.16
33496;BME280;19836;55.812;37.560;2022-12-18T05:15:59;99113.75;;;-2.59;75.33
33496;BME280;19836;55.812;37.560;2022-12-18T05:18:26;99113.72;;;-2.62;75.47
33496;BME280;19836;55.812;37.560;2022-12-18T05:20:52;99118.97;;;-2.61;75.61
33496;BME280;19836;55.812;37.560;2022-12-18T05:23:19;99116.34;;;-2.62;75.64
33496;BME280;19836;55.812;37.560;2022-12-18T05:25:53;99120.69;;;-2.64;75.38
33496;BME280;19836;55.812;37.560;2022-12-18T05:28:20;99131.19;;;-2.63;75.52
33496;BME280;19836;55.812;37.560;2022-12-18T05:30:51;99146.03;;;-2.66;75.30
33496;BME280;19836;55.812;37.560;2022-12-18T05:33:18;99158.25;;;-2.65;75.44
33496;BME280;19836;55.812;37.560;2022-12-18T05:35:53;99153.91;;;-2.63;75.69
33496;BME280;19836;55.812;37.560;2022-12-18T05:38:20;99152.13;;;-2.66;75.78
33496;BME280;19836;55.812;37.560;2022-12-18T05:40:47;99154.72;;;-2.67;75.85
33496;BME280;19836;55.812;37.560;2022-12-18T05:43:13;99166.03;;;-2.72;75.49
33496;BME280;19836;55.812;37.560;2022-12-18T05:45:40;99166.88;;;-2.72;75.34
33496;BME280;19836;55.812;37.560;2022-12-18T05:48:07;99178.25;;;-2.73;75.67
33496;BME280;19836;55.812;37.560;2022-12-18T05:50:35;99176.50;;;-2.72;75.43
33496;BME280;19836;55.812;37.560;2022-12-18T05:53:02;99178.22;;;-2.75;75.20
33496;BME280;19836;55.812;37.560;2022-12-18T05:55:28;99195.72;;;-2.72;75.24
33496;BME280;19836;55.812;37.560;2022-12-18T05:57:54;99198.38;;;-2.71;75.10
33496;BME280;19836;55.812;37.560;2022-12-18T06:00:20;99203.59;;;-2.72;75.27
33496;BME280;19836;55.812;37.560;2022-12-18T06:02:47;99203.59;;;-2.72;75.23
33496;BME280;19836;55.812;37.560;2022-12-18T06:05:13;99203.63;;;-2.69;75.42
33496;BME280;19836;55.812;37.560;2022-12-18T06:07:39;99204.56;;;-2.66;75.49
33496;BME280;19836;55.812;37.560;2022-12-18T06:10:06;99206.31;;;-2.65;74.93
33496;BME280;19836;55.812;37.560;2022-12-18T06:12:32;99221.13;;;-2.68;75.54
33496;BME280;19836;55.812;37.560;2022-12-18T06:15:01;99212.31;;;-2.73;75.19
33496;BME280;19836;55.812;37.560;2022-12-18T06:17:32;99213.09;;;-2.80;74.71
33496;BME280;19836;55.812;37.560;2022-12-18T06:19:58;99223.63;;;-2.78;75.17
33496;BME280;19836;55.812;37.560;2022-12-18T06:22:24;99226.28;;;-2.74;74.72
33496;BME280;19836;55.812;37.560;2022-12-18T06:24:50;99229.78;;;-2.72;74.84
33496;BME280;19836;55.812;37.560;2022-12-18T06:27:16;99235.91;;;-2.73;74.71
33496;BME280;19836;55.812;37.560;2022-12-18T06:29:42;99240.28;;;-2.72;75.11
33496;BME280;19836;55.812;37.560;2022-12-18T06:32:08;99234.19;;;-2.70;75.13
33496;BME280;19836;55.812;37.560;2022-12-18T06:34:37;99243.84;;;-2.67;74.68
33496;BME280;19836;55.812;37.560;2022-12-18T06:37:03;99244.78;;;-2.65;75.08
33496;BME280;19836;55.812;37.560;2022-12-18T06:39:29;99243.03;;;-2.63;74.86
33496;BME280;19836;55.812;37.560;2022-12-18T06:41:55;99244.78;;;-2.62;75.10
33496;BME280;19836;55.812;37.560;2022-12-18T06:44:21;99246.59;;;-2.58;74.91
33496;BME280;19836;55.812;37.560;2022-12-18T06:46:49;99254.44;;;-2.61;74.88
33496;BME280;19836;55.812;37.560;2022-12-18T06:49:16;99267.53;;;-2.63;74.42
33496;BME280;19836;55.812;37.560;2022-12-18T06:51:42;99278.88;;;-2.62;74.54
33496;BME280;19836;55.812;37.560;2022-12-18T06:54:08;99282.44;;;-2.57;74.10
33496;BME280;19836;55.812;37.560;2022-12-18T06:56:34;99293.84;;;-2.54;74.62
33496;BME280;19836;55.812;37.560;2022-12-18T06:59:01;99298.22;;;-2.54;74.36
33496;BME280;19836;55.812;37.560;2022-12-18T07:01:27;99300.94;;;-2.48;74.00
33496;BME280;19836;55.812;37.560;2022-12-18T07:03:54;99303.66;;;-2.41;74.05
33496;BME280;19836;55.812;37.560;2022-12-18T07:06:23;99307.25;;;-2.31;73.72
33496;BME280;19836;55.812;37.560;2022-12-18T07:08:53;99306.50;;;-2.24;73.86
33496;BME280;19836;55.812;37.560;2022-12-18T07:11:23;99315.38;;;-2.15;73.90
33496;BME280;19836;55.812;37.560;2022-12-18T07:14:14;99310.06;;;-2.19;73.74
33496;BME280;19836;55.812;37.560;2022-12-18T07:16:55;99313.50;;;-2.23;73.46
33496;BME280;19836;55.812;37.560;2022-12-18T07:20:00;99309.28;;;-2.12;73.54
33496;BME280;19836;55.812;37.560;2022-12-18T07:22:26;99311.91;;;-2.11;73.20
33496;BME280;19836;55.812;37.560;2022-12-18T07:24:53;99326.81;;;-2.08;73.31
33496;BME280;19836;55.812;37.560;2022-12-18T07:27:25;99335.50;;;-2.12;72.71
33496;BME280;19836;55.812;37.560;2022-12-18T07:29:56;99337.25;;;-2.14;72.64
33496;BME280;19836;55.812;37.560;2022-12-18T07:32:23;99344.19;;;-2.19;72.03
33496;BME280;19836;55.812;37.560;2022-12-18T07:34:49;99357.34;;;-2.15;72.20
33496;BME280;19836;55.812;37.560;2022-12-18T07:37:18;99362.63;;;-2.13;72.02
33496;BME280;19836;55.812;37.560;2022-12-18T07:39:46;99367.00;;;-2.12;72.26
33496;BME280;19836;55.812;37.560;2022-12-18T07:42:12;99367.06;;;-2.09;71.92
33496;BME280;19836;55.812;37.560;2022-12-18T07:44:57;99363.63;;;-2.05;71.75
33496;BME280;19836;55.812;37.560;2022-12-18T07:47:23;99355.63;;;-2.11;71.68
33496;BME280;19836;55.812;37.560;2022-12-18T07:49:49;99360.88;;;-2.13;71.70
33496;BME280;19836;55.812;37.560;2022-12-18T07:52:15;99362.66;;;-2.12;71.36
33496;BME280;19836;55.812;37.560;2022-12-18T07:54:41;99361.81;;;-2.06;71.76
33496;BME280;19836;55.812;37.560;2022-12-18T07:57:07;99359.31;;;-2.00;71.57
33496;BME280;19836;55.812;37.560;2022-12-18T07:59:33;99361.09;;;-1.98;71.64
33496;BME280;19836;55.812;37.560;2022-12-18T08:01:59;99356.72;;;-1.96;71.08
33496;BME280;19836;55.812;37.560;2022-12-18T08:04:25;99361.09;;;-1.98;71.17
33496;BME280;19836;55.812;37.560;2022-12-18T08:06:51;99367.25;;;-1.94;71.23
33496;BME280;19836;55.812;37.560;2022-12-18T08:09:17;99373.41;;;-1.91;71.00
33496;BME280;19836;55.812;37.560;2022-12-18T08:11:44;99376.00;;;-1.92;70.93
33496;BME280;19836;55.812;37.560;2022-12-18T08:14:10;99377.75;;;-1.94;71.06
33496;BME280;19836;55.812;37.560;2022-12-18T08:16:36;99371.63;;;-1.93;70.67
33496;BME280;19836;55.812;37.560;2022-12-18T08:19:02;99399.56;;;-1.98;70.93
33496;BME280;19836;55.812;37.560;2022-12-18T08:21:29;99403.03;;;-2.01;70.85
33496;BME280;19836;55.812;37.560;2022-12-18T08:23:58;99409.25;;;-1.94;70.86
33496;BME280;19836;55.812;37.560;2022-12-18T08:26:26;99418.88;;;-1.93;70.71
33496;BME280;19836;55.812;37.560;2022-12-18T08:28:54;99432.91;;;-1.92;70.62
33496;BME280;19836;55.812;37.560;2022-12-18T08:31:21;99439.09;;;-1.86;70.74
33496;BME280;19836;55.812;37.560;2022-12-18T08:33:51;99447.03;;;-1.82;71.04
33496;BME280;19836;55.812;37.560;2022-12-18T08:36:18;99448.09;;;-1.69;71.06
33496;BME280;19836;55.812;37.560;2022-12-18T08:38:48;99440.97;;;-1.76;70.53
33496;BME280;19836;55.812;37.560;2022-12-18T08:41:15;99448.84;;;-1.77;70.68
33496;BME280;19836;55.812;37.560;2022-12-18T08:43:42;99445.31;;;-1.80;70.82
33496;BME280;19836;55.812;37.560;2022-12-18T08:46:27;99448.84;;;-1.77;70.64
33496;BME280;19836;55.812;37.560;2022-12-18T08:48:56;99443.59;;;-1.77;70.58
33496;BME280;19836;55.812;37.560;2022-12-18T08:51:45;99455.91;;;-1.72;70.72
33496;BME280;19836;55.812;37.560;2022-12-18T08:54:12;99451.47;;;-1.76;70.87
33496;BME280;19836;55.812;37.560;2022-12-18T08:56:39;99437.50;;;-1.75;70.95
33496;BME280;19836;55.812;37.560;2022-12-18T08:59:05;99439.25;;;-1.76;70.69
33496;BME280;19836;55.812;37.560;2022-12-18T09:01:31;99435.78;;;-1.73;71.08
33496;BME280;19836;55.812;37.560;2022-12-18T09:03:57;99449.78;;;-1.71;70.80
33496;BME280;19836;55.812;37.560;2022-12-18T09:06:23;99447.22;;;-1.68;71.10
33496;BME280;19836;55.812;37.560;2022-12-18T09:08:49;99449.91;;;-1.65;71.09
33496;BME280;19836;55.812;37.560;2022-12-18T09:11:21;99459.63;;;-1.57;71.17
33496;BME280;19836;55.812;37.560;2022-12-18T09:13:47;99457.00;;;-1.58;71.26
33496;BME280;19836;55.812;37.560;2022-12-18T09:16:16;99466.63;;;-1.57;71.29
33496;BME280;19836;55.812;37.560;2022-12-18T09:18:46;99463.97;;;-1.59;71.04
33496;BME280;19836;55.812;37.560;2022-12-18T09:21:16;99474.50;;;-1.57;71.33
33496;BME280;19836;55.812;37.560;2022-12-18T09:23:49;99460.50;;;-1.58;71.04
33496;BME280;19836;55.812;37.560;2022-12-18T09:26:15;99475.38;;;-1.58;71.40
33496;BME280;19836;55.812;37.560;2022-12-18T09:28:41;99485.94;;;-1.55;71.31
33496;BME280;19836;55.812;37.560;2022-12-18T09:31:08;99489.38;;;-1.56;70.97
33496;BME280;19836;55.812;37.560;2022-12-18T09:33:36;99492.00;;;-1.56;71.04
33496;BME280;19836;55.812;37.560;2022-12-18T09:36:07;99504.31;;;-1.55;71.26
33496;BME280;19836;55.812;37.560;2022-12-18T09:38:42;99501.69;;;-1.55;71.25
33496;BME280;19836;55.812;37.560;2022-12-18T09:45:07;99520.28;;;-1.40;70.94
33496;BME280;19836;55.812;37.560;2022-12-18T09:47:39;99520.16;;;-1.46;71.23
33496;BME280;19836;55.812;37.560;2022-12-18T09:50:19;99521.84;;;-1.51;70.88
33496;BME280;19836;55.812;37.560;2022-12-18T09:52:50;99519.22;;;-1.51;71.14
33496;BME280;19836;55.812;37.560;2022-12-18T10:01:00;99533.03;;;-1.66;71.52
33496;BME280;19836;55.812;37.560;2022-12-18T10:03:29;99535.66;;;-1.66;71.49
33496;BME280;19836;55.812;37.560;2022-12-18T10:06:19;99534.75;;;-1.66;71.60
33496;BME280;19836;55.812;37.560;2022-12-18T10:09:15;99542.63;;;-1.69;72.08
33496;BME280;19836;55.812;37.560;2022-12-18T10:12:07;99548.75;;;-1.70;71.58
33496;BME280;19836;55.812;37.560;2022-12-18T10:14:42;99546.13;;;-1.70;71.77
33496;BME280;19836;55.812;37.560;2022-12-18T10:20:27;99540.88;;;-1.67;71.72
33496;BME280;19836;55.812;37.560;2022-12-18T10:23:08;99554.03;;;-1.66;71.75
33496;BME280;19836;55.812;37.560;2022-12-18T10:26:06;99562.69;;;-1.71;71.75
33496;BME280;19836;55.812;37.560;2022-12-18T10:28:33;99560.00;;;-1.77;71.62
33496;BME280;19836;55.812;37.560;2022-12-18T10:31:01;99557.34;;;-1.80;71.81
33496;BME280;19836;55.812;37.560;2022-12-18T10:33:31;99559.00;;;-1.84;71.89
33496;BME280;19836;55.812;37.560;2022-12-18T10:35:58;99556.50;;;-1.76;72.13
33496;BME280;19836;55.812;37.560;2022-12-18T10:38:29;99554.75;;;-1.77;71.89
33496;BME280;19836;55.812;37.560;2022-12-18T10:43:33;99561.66;;;-1.82;71.92
33496;BME280;19836;55.812;37.560;2022-12-18T10:46:14;99560.69;;;-1.90;72.08
33496;BME280;19836;55.812;37.560;2022-12-18T10:51:07;99567.59;;;-1.94;72.55
33496;BME280;19836;55.812;37.560;2022-12-18T10:53:35;99576.34;;;-1.95;72.95
33496;BME280;19836;55.812;37.560;2022-12-18T10:56:04;99576.41;;;-1.92;73.00
33496;BME280;19836;55.812;37.560;2022-12-18T10:58:35;99589.44;;;-1.96;72.94
33496;BME280;19836;55.812;37.560;2022-12-18T11:01:15;99596.41;;;-1.98;72.95
33496;BME280;19836;55.812;37.560;2022-12-18T11:06:22;99613.91;;;-1.97;73.28
33496;BME280;19836;55.812;37.560;2022-12-18T11:09:00;99613.88;;;-1.99;73.10
33496;BME280;19836;55.812;37.560;2022-12-18T11:11:27;99623.50;;;-1.99;73.52
33496;BME280;19836;55.812;37.560;2022-12-18T11:14:03;99620.00;;;-2.00;73.25
33496;BME280;19836;55.812;37.560;2022-12-18T11:16:33;99621.78;;;-1.97;73.16
33496;BME280;19836;55.812;37.560;2022-12-18T11:19:28;99627.06;;;-1.96;72.92
33496;BME280;19836;55.812;37.560;2022-12-18T11:21:56;99627.91;;;-1.98;73.05
33496;BME280;19836;55.812;37.560;2022-12-18T11:24:33;99633.09;;;-2.03;73.02
33496;BME280;19836;55.812;37.560;2022-12-18T11:27:04;99637.38;;;-2.06;72.93
33496;BME280;19836;55.812;37.560;2022-12-18T11:37:59;99646.19;;;-2.03;73.01
33496;BME280;19836;55.812;37.560;2022-12-18T11:40:36;99643.59;;;-2.03;72.97
33496;BME280;19836;55.812;37.560;2022-12-18T11:43:10;99646.19;;;-2.03;72.98
33496;BME280;19836;55.812;37.560;2022-12-18T11:46:02;99647.09;;;-2.01;73.49
33496;BME280;19836;55.812;37.560;2022-12-18T11:48:44;99652.28;;;-2.05;73.40
33496;BME280;19836;55.812;37.560;2022-12-18T11:51:11;99648.78;;;-2.04;73.56
33496;BME280;19836;55.812;37.560;2022-12-18T11:53:39;99660.06;;;-2.10;73.18
33496;BME280;19836;55.812;37.560;2022-12-18T11:59:00;99666.00;;;-2.20;73.25
33496;BME280;19836;55.812;37.560;2022-12-18T12:01:51;99679.94;;;-2.22;73.48
33496;BME280;19836;55.812;37.560;2022-12-18T12:10:04;99695.78;;;-2.16;73.83
33496;BME280;19836;55.812;37.560;2022-12-18T12:18:18;99722.78;;;-2.23;73.34
33496;BME280;19836;55.812;37.560;2022-12-18T12:21:04;99723.72;;;-2.20;73.21
33496;BME280;19836;55.812;37.560;2022-12-18T12:23:52;99721.97;;;-2.19;73.77
33496;BME280;19836;55.812;37.560;2022-12-18T12:26:38;99735.09;;;-2.19;73.63
33496;BME280;19836;55.812;37.560;2022-12-18T12:34:49;99751.75;;;-2.17;73.43
33496;BME280;19836;55.812;37.560;2022-12-18T12:40:27;99760.59;;;-2.12;73.78
33496;BME280;19836;55.812;37.560;2022-12-18T12:43:36;99764.97;;;-2.13;73.54
33496;BME280;19836;55.812;37.560;2022-12-18T12:46:12;99767.59;;;-2.11;73.65
33496;BME280;19836;55.812;37.560;2022-12-18T12:48:57;99777.28;;;-2.10;73.38
33496;BME280;19836;55.812;37.560;2022-12-18T12:51:39;99772.03;;;-2.10;73.48
33496;BME280;19836;55.812;37.560;2022-12-18T12:54:23;99780.75;;;-2.10;73.03
33496;BME280;19836;55.812;37.560;2022-12-18T12:56:57;99781.59;;;-2.12;73.35
33496;BME280;19836;55.812;37.560;2022-12-18T13:07:53;99811.41;;;-2.10;73.32
33496;BME280;19836;55.812;37.560;2022-12-18T13:13:07;99828.91;;;-2.09;73.25
33496;BME280;19836;55.812;37.560;2022-12-18T13:15:40;99834.16;;;-2.09;73.23
33496;BME280;19836;55.812;37.560;2022-12-18T13:20:44;99843.78;;;-2.08;73.42
33496;BME280;19836;55.812;37.560;2022-12-18T13:25:57;99855.19;;;-2.06;73.43
33496;BME280;19836;55.812;37.560;2022-12-18T13:31:00;99859.63;;;-2.04;73.53
33496;BME280;19836;55.812;37.560;2022-12-18T13:33:40;99863.31;;;-1.96;73.91
33496;BME280;19836;55.812;37.560;2022-12-18T13:36:25;99867.94;;;-1.84;73.70
33496;BME280;19836;55.812;37.560;2022-12-18T13:41:41;99866.16;;;-1.85;73.33
33496;BME280;19836;55.812;37.560;2022-12-18T13:44:25;99887.16;;;-1.85;73.19
33496;BME280;19836;55.812;37.560;2022-12-18T13:46:52;99886.31;;;-1.84;73.75
33496;BME280;19836;55.812;37.560;2022-12-18T13:55:04;99922.06;;;-1.89;73.63
33496;BME280;19836;55.812;37.560;2022-12-18T13:57:37;99927.19;;;-1.95;73.58
33496;BME280;19836;55.812;37.560;2022-12-18T14:04:40;99939.47;;;-1.94;73.83
33496;BME280;19836;55.812;37.560;2022-12-18T14:07:48;99958.75;;;-1.92;73.81
33496;BME280;19836;55.812;37.560;2022-12-18T14:10:25;99931.63;;;-1.92;73.75
33496;BME280;19836;55.812;37.560;2022-12-18T14:12:56;99951.72;;;-1.93;73.90
33496;BME280;19836;55.812;37.560;2022-12-18T14:15:32;99957.13;;;-1.87;73.58
33496;BME280;19836;55.812;37.560;2022-12-18T14:18:01;99970.25;;;-1.87;73.78
33496;BME280;19836;55.812;37.560;2022-12-18T14:20:30;99973.66;;;-1.91;73.45
33496;BME280;19836;55.812;37.560;2022-12-18T14:22:58;99979.69;;;-1.95;73.95
33496;BME280;19836;55.812;37.560;2022-12-18T14:28:59;99986.28;;;-2.12;73.64
33496;BME280;19836;55.812;37.560;2022-12-18T14:31:38;99993.28;;;-2.13;73.34
33496;BME280;19836;55.812;37.560;2022-12-18T14:34:20;99999.31;;;-2.17;73.35
33496;BME280;19836;55.812;37.560;2022-12-18T14:37:13;99994.00;;;-2.18;72.95
33496;BME280;19836;55.812;37.560;2022-12-18T14:40:11;100016.59;;;-2.25;72.61
33496;BME280;19836;55.812;37.560;2022-12-18T14:42:43;100014.69;;;-2.32;72.40
33496;BME280;19836;55.812;37.560;2022-12-18T14:45:35;100017.97;;;-2.40;72.99
33496;BME280;19836;55.812;37.560;2022-12-18T14:50:47;100026.75;;;-2.38;72.96
33496;BME280;19836;55.812;37.560;2022-12-18T14:56:25;100035.56;;;-2.35;72.80
33496;BME280;19836;55.812;37.560;2022-12-18T14:58:57;100045.09;;;-2.38;72.66
33496;BME280;19836;55.812;37.560;2022-12-18T15:01:37;100048.50;;;-2.42;72.53
33496;BME280;19836;55.812;37.560;2022-12-18T15:04:31;100044.88;;;-2.47;72.34
33496;BME280;19836;55.812;37.560;2022-12-18T15:07:14;100049.97;;;-2.53;72.39